WetterOnline ( https://www.wetteronline.de )

Wetter aktuell Erligheim

Aktuelles Wetter: Mühlacker (245m)

6-stündlich | Neueste Meldungen
Ortszeit Temperatur Wetter
Di, 20.08. 8:00 15.1° C wolkig
Di, 20.08. 2:00 14.5° C bedeckt
Mo, 19.08. 20:00 21.8° C leicht bewölkt
Mo, 19.08. 14:00 23.5° C leicht bewölkt
Mo, 19.08. 8:00 17.3° C wolkig
Mo, 19.08. 2:00 19.6° C bedeckt
So, 18.08. 20:00 25.8° C wolkig
So, 18.08. 14:00 30.2° C wolkenlos
Ortszeit Temperatur Wetter
Di, 20.08. 12:00 18.0° C bewölkt
Di, 20.08. 11:50 18.0° C bewölkt
Di, 20.08. 11:40 18.2° C bewölkt
Di, 20.08. 11:30 18.2° C bewölkt
Di, 20.08. 11:20 18.2° C bewölkt
Di, 20.08. 11:10 18.4° C bewölkt
Di, 20.08. 11:00 17.9° C wolkig
Di, 20.08. 10:30 17.6° C wolkig
Di, 20.08. 10:00 17.3° C bewölkt
Di, 20.08. 9:30 17.0° C bewölkt
Di, 20.08. 9:00 16.6° C bewölkt
Ortszeit Relative Feuchte Sichtweite
Di, 20.08. 8:00 87% 30 km
Di, 20.08. 2:00 92% 30 km
Mo, 19.08. 20:00 58% 55 km
Mo, 19.08. 14:00 53% 55 km
Mo, 19.08. 8:00 99% 16 km
Mo, 19.08. 2:00 77% 70 km
So, 18.08. 20:00 57% 55 km
So, 18.08. 14:00 40% 40 km
Ortszeit Relative Feuchte Sichtweite
Di, 20.08. 12:00 64% 45 km
Di, 20.08. 11:50 64% -
Di, 20.08. 11:40 65% -
Di, 20.08. 11:30 63% 45 km
Di, 20.08. 11:20 63% -
Di, 20.08. 11:10 65% -
Di, 20.08. 11:00 64% 40 km
Di, 20.08. 10:30 68% 35 km
Di, 20.08. 10:00 68% 40 km
Di, 20.08. 9:30 69% 40 km
Di, 20.08. 9:00 73% 35 km
Ortszeit Niederschlagsmenge Niederschlagsart
Di, 20.08. 8:00 0.0 l/m2 in 12 Std. -
Di, 20.08. 2:00 0.0 l/m2 in 6 Std. -
Mo, 19.08. 20:00 0.2 l/m2 in 12 Std. -
Mo, 19.08. 14:00 0.0 l/m2 in 6 Std. -
Mo, 19.08. 8:00 3 l/m2 in 12 Std. Regen
Mo, 19.08. 2:00 3 l/m2 in 6 Std. Regen
So, 18.08. 20:00 0.4 l/m2 in 12 Std. Regen
So, 18.08. 14:00 0.1 l/m2 in 6 Std. -
Ortszeit Niederschlagsmenge Niederschlagsart
Di, 20.08. 12:00 0.0 l/m2 in 1 Std. -
Di, 20.08. 11:50 keine Meldung -
Di, 20.08. 11:40 keine Meldung -
Di, 20.08. 11:30 0.0 l/m2 in 1 Std. -
Di, 20.08. 11:20 keine Meldung -
Di, 20.08. 11:10 keine Meldung -
Di, 20.08. 11:00 0.0 l/m2 in 1 Std. -
Di, 20.08. 10:30 0.0 l/m2 in 1 Std. -
Di, 20.08. 10:00 0.0 l/m2 in 1 Std. -
Di, 20.08. 9:30 0.0 l/m2 in 1 Std. -
Di, 20.08. 9:00 0.0 l/m2 in 1 Std. -
Ortszeit Stärke Spitze Richtung
km/h Bft. km/h Grad Sektor
Di, 20.08. 8:00 4 1 7 270° W
Di, 20.08. 2:00 0 0 7 - -
Mo, 19.08. 20:00 4 1 25 200° S
Mo, 19.08. 14:00 7 2 20 300° NW
Mo, 19.08. 8:00 2 1 20 60° NO
Mo, 19.08. 2:00 13 3 26 260° W
So, 18.08. 20:00 11 2 40 260° W
So, 18.08. 14:00 15 3 31 280° W
Ortszeit Stärke Spitze Richtung
km/h Bft. km/h Grad Sektor
Di, 20.08. 12:00 11 2 14 300° NW
Di, 20.08. 11:50 11 2 - 300° NW
Di, 20.08. 11:40 9 2 - 300° NW
Di, 20.08. 11:30 9 2 13 310° NW
Di, 20.08. 11:20 9 2 - 310° NW
Di, 20.08. 11:10 7 2 - 290° W
Di, 20.08. 11:00 7 2 14 290° W
Di, 20.08. 10:30 7 2 14 300° NW
Di, 20.08. 10:00 11 2 14 300° NW
Di, 20.08. 9:30 7 2 11 280° W
Di, 20.08. 9:00 7 2 13 290° W
Ortszeit Untergrenze Bedeckung Gattung
total tief tief mittel hoch
Di, 20.08. 8:00 1500 m 8/8 1/8 - - -
Di, 20.08. 2:00 6600 m 8/8 8/8 - - -
Mo, 19.08. 20:00 7500 m 8/8 0/8 - - -
Mo, 19.08. 14:00 1380 m 4/8 4/8 - - -
Mo, 19.08. 8:00 570 m 7/8 2/8 - - -
Mo, 19.08. 2:00 1800 m 8/8 8/8 - - -
So, 18.08. 20:00 5400 m 8/8 1/8 - - -
So, 18.08. 14:00 - 0/8 0/8 - - -
Ortszeit Bedeckungsgrad in Achtel und Wolkenuntergrenze
Di, 20.08. 12:00 7(1500m) 7(2100m) 8(4500m)
Di, 20.08. 11:50 7(1500m) 7(2100m) 8(4500m)
Di, 20.08. 11:40 7(1500m) 7(2100m) 8(4500m)
Di, 20.08. 11:30 3(1800m) 5(2400m) 8(4500m)
Di, 20.08. 11:20 3(1800m) 5(2400m) 8(4500m)
Di, 20.08. 11:10 1(1800m) 5(2400m) 8(4500m)
Di, 20.08. 11:00 1(1500m) 8(4800m) 8(4800m)
Di, 20.08. 10:30 3(1500m) 7(4800m)
Di, 20.08. 10:00 7(1500m) 7(1800m) 7(5400m)
Di, 20.08. 9:30 6(1500m) 7(5400m)
Di, 20.08. 9:00 7(1500m) 7(5400m)
Ortszeit Luftdruck NN (hPa) Tendenz (hPa in 3 Std.)
Di, 20.08. 8:00 1022 + 0,2
Di, 20.08. 2:00 1021 + 1,2
Mo, 19.08. 20:00 1018 + 0,3
Mo, 19.08. 14:00 1017 + 0,3
Mo, 19.08. 8:00 1017 + 1,1
Mo, 19.08. 2:00 1014 + 1,8
So, 18.08. 20:00 1009 + 0,7
So, 18.08. 14:00 1007 - 0,9
Ortszeit Luftdruck NN (hPa) Tendenz (hPa in 3 Std.)
Di, 20.08. 12:00 1023 + 0,8
Di, 20.08. 11:50 1023 keine Meldung
Di, 20.08. 11:40 1023 keine Meldung
Di, 20.08. 11:30 1022 + 0,7
Di, 20.08. 11:20 1022 keine Meldung
Di, 20.08. 11:10 1022 keine Meldung
Di, 20.08. 11:00 1022 + 1,0
Di, 20.08. 10:30 1022 + 1,1
Di, 20.08. 10:00 1022 + 0,6
Di, 20.08. 9:30 1022 + 0,7
Di, 20.08. 9:00 1022 + 0,9
Ortszeit Schneehöhe (cm)
Di, 20.08. 8:00 -
Di, 20.08. 2:00 -
Mo, 19.08. 20:00 -
Mo, 19.08. 14:00 -
Mo, 19.08. 8:00 -
Mo, 19.08. 2:00 -
So, 18.08. 20:00 -
So, 18.08. 14:00 -
Ortszeit Schneehöhe (cm)
Di, 20.08. 12:00 -
Di, 20.08. 11:50 -
Di, 20.08. 11:40 -
Di, 20.08. 11:30 -
Di, 20.08. 11:20 -
Di, 20.08. 11:10 -
Di, 20.08. 11:00 -
Di, 20.08. 10:30 -
Di, 20.08. 10:00 -
Di, 20.08. 9:30 -
Di, 20.08. 9:00 -
Link zu dieser Seite / Seite empfehlen

Das Wetter in ...